Hawaii METAR Reports

 

PHOG - Kahului, Hawaii, USA
Distance from station: WNW 8mi, 13km
Updated: Sun, 22-Sep-2019 10:54pm HST
Clear
Clear
 Wind from calm
Wind: Calm
Temperature: 81°F , 27°C
Heat Index: 85°F , 29°C
Dew Point: 72°F , 22°C
Humidity: 74%
Barometer: 30.01 inHg , 1016.3 hPa
Clouds: Clear
Visibility: 10 miles , 16 km
2019/09/23 08:54 PHOG 230854Z 00000KT 10SM CLR 27/22 A3001 RMK AO2 SLP167 T02720222 51008
PHJH - Lahaina/West Mau, Hawaii, USA
Distance from station: WNW 24mi, 39km
Updated: Sun, 22-Sep-2019 5:45pm HST
NOT Current
Partly Cloudy
Partly Cloudy
 Wind from E
Wind: E 7 mph , 11 km/h
Temperature: 86°F , 30°C
Heat Index: 92°F , 33°C
Dew Point: 72°F , 22°C
Humidity: 62%
Barometer: 29.97 inHg , 1014.9 hPa
Clouds: Partly Cloudy
Visibility: 10 miles , 16 km
Cloud details: Few Clouds 3000 ft
Partly Cloudy 5000 ft
2019/09/23 03:45 PHJH 230345Z 09006KT 10SM FEW030 SCT050 30/22 A2997 RMK LAST
 
PHNY - Lanai City Airpo, Hawaii, USA
Distance from station: W 40mi, 65km
Updated: Sun, 22-Sep-2019 10:56pm HST
Clear
Clear
 Wind from ESE
Wind: ESE 7 mph , 11 km/h
Temperature: 75°F , 24°C
Dew Point: 75°F , 24°C
Humidity: 100%
Barometer: 30.09 inHg , 1019 hPa
Clouds: Clear
Visibility: 10 miles , 16 km
2019/09/23 08:56 PHNY 230856Z AUTO 11006KT 10SM CLR 24/24 A3009 RMK AO2 SLP166 T02390239 50005
PHMK - Molokai, Hawaii, USA
Distance from station: WNW 55mi, 88km
Updated: Sun, 22-Sep-2019 10:54pm HST
Clear
Clear
 Wind from calm
Wind: Calm
Temperature: 81°F , 27°C
Heat Index: 85°F , 29°C
Dew Point: 72°F , 22°C
Humidity: 74%
Barometer: 30.04 inHg , 1017.3 hPa
Clouds: Clear
Visibility: 10 miles , 16 km
2019/09/23 08:54 PHMK 230854Z AUTO 00000KT 10SM CLR 27/22 A3004 RMK AO2 SLP172 T02670217 51006 TSNO
 
PHKO - Kailua/Kona, Hawaii, USA
Distance from station: SSE 79mi, 128km
Updated: Sun, 22-Sep-2019 10:53pm HST
Overcast
Overcast
 Wind from E
Wind: E 5 mph , 7 km/h
Temperature: 81°F , 27°C
Heat Index: 87°F , 31°C
Dew Point: 75°F , 24°C
Humidity: 84%
Barometer: 30.00 inHg , 1015.9 hPa
Clouds: Overcast
Visibility: 10 miles , 16 km
Cloud details: Mostly Cloudy 1400 ft
Overcast 2600 ft
2019/09/23 08:53 PHKO 230853Z AUTO 10004KT 10SM BKN014 OVC026 27/24 A3000 RMK AO2 SLP157 T02670239 50007 TSNO
PHSF - Bradshaw Aaf/Haw, Hawaii, USA
Distance from station: SE 90mi, 145km
Updated: Sun, 22-Sep-2019 10:58pm HST
Clear
Clear
 Wind from S
Wind: S 9 mph , 15 km/h
Temperature: 61°F , 16°C
Dew Point: 59°F , 15°C
Humidity: 94%
Barometer: 30.39 inHg , 1029.1 hPa
Clouds: Clear
Visibility: 10 miles , 16 km
2019/09/23 08:58 PHSF 230858Z AUTO 17008KT 10SM CLR 16/15 A3039 RMK AO2 SLP157 T01590147 58000 $
 
PHNG - Kaneohe Mcas, Hawaii, USA
Distance from station: WNW 102mi, 164km
Updated: Sun, 22-Sep-2019 11:14pm HST
Mostly Cloudy
Mostly Cloudy
 Wind from ESE
Wind: ESE 9 mph , 15 km/h
Temperature: 82°F , 28°C
Heat Index: 89°F , 32°C
Dew Point: 75°F , 24°C
Humidity: 79%
Barometer: 30.00 inHg , 1015.9 hPa
Clouds: Mostly Cloudy
Visibility: 10 miles , 16 km
Cloud details: Few Clouds 1700 ft
Mostly Cloudy 3100 ft
2019/09/23 09:14 PHNG 230914Z 12008KT 10SM FEW017 BKN031 28/24 A3000 RMK AO2 T02780239 PNO $
PHNL - Honolulu, Hawaii, USA
Distance from station: WNW 108mi, 174km
Updated: Sun, 22-Sep-2019 10:53pm HST
Few Clouds
Few Clouds
 Wind from NNE
Wind: NNE 3 mph , 6 km/h
Temperature: 81°F , 27°C
Heat Index: 86°F , 30°C
Dew Point: 73°F , 23°C
Humidity: 79%
Barometer: 30.03 inHg , 1016.9 hPa
Clouds: Few Clouds
Visibility: 10 miles , 16 km
Cloud details: Few Clouds 2300 ft
Few Clouds 4200 ft
2019/09/23 08:53 PHNL 230853Z 03003KT 10SM FEW023 FEW042 27/23 A3003 RMK AO2 SLP168 T02720233 50008 $
 
PHTO - Hilo, Hawaii, USA
Distance from station: SE 114mi, 183km
Updated: Sun, 22-Sep-2019 11:13pm HST
Overcast
Overcast
 Wind from SE
Wind: SE 9 mph , 15 km/h
Temperature: 79°F , 26°C
Dew Point: 73°F , 23°C
Humidity: 84%
Barometer: 30.06 inHg , 1017.9 hPa
Clouds: Overcast
Visibility: 9 miles , 14 km
Cloud details: Mostly Cloudy 2900 ft
Overcast 4000 ft
2019/09/23 09:13 PHTO 230913Z AUTO 13008KT 9SM BKN029 OVC040 26/23 A3006 RMK AO2 T02560228 TSNO $
PHJR - Kalaeloa, Hawaii, USA
Distance from station: WNW 117mi, 189km
Updated: Sun, 22-Sep-2019 6:53pm HST
NOT Current
Mostly Cloudy
Mostly Cloudy
 Wind from SSE
Wind: SSE 6 mph , 9 km/h
Temperature: 84°F , 29°C
Heat Index: 92°F , 33°C
Dew Point: 75°F , 24°C
Humidity: 74%
Barometer: 30.00 inHg , 1015.9 hPa
Clouds: Mostly Cloudy
Visibility: 10 miles , 16 km
Cloud details: Mostly Cloudy 3500 ft
2019/09/23 04:53 PHJR 230453Z 16005KT 10SM BKN035 29/24 A3000 RMK AO2 SLP164 T02890239
 
PHHI - Wheeler Afb/Oahu, Hawaii, USA
Distance from station: WNW 120mi, 193km
Updated: Sun, 22-Sep-2019 10:56pm HST
Mostly Cloudy
Mostly Cloudy
 Wind from calm
Wind: Calm
Temperature: 77°F , 25°C
Dew Point: 73°F , 23°C
Humidity: 89%
Barometer: 30.04 inHg , 1017.3 hPa
Clouds: Mostly Cloudy
Visibility: 10 miles , 16 km
Cloud details: Few Clouds 2100 ft
Partly Cloudy 4800 ft
Mostly Cloudy 17000 ft
2019/09/23 08:56 PHHI 230856Z AUTO 00000KT 10SM FEW021 SCT048 BKN170 25/23 A3004 RMK AO2 SLP159 T02460228 50006
PHLI - Lihue/Kauai Is, Hawaii, USA
Distance from station: WNW 209mi, 336km
Updated: Sun, 22-Sep-2019 10:53pm HST
Mostly Cloudy
Mostly Cloudy
 Wind from WNW
Wind: WNW 7 mph , 11 km/h
Temperature: 79°F , 26°C
Dew Point: 75°F , 24°C
Humidity: 89%
Barometer: 30.04 inHg , 1017.3 hPa
Clouds: Mostly Cloudy
Visibility: 10 miles , 16 km
Cloud details: Partly Cloudy 1600 ft
Mostly Cloudy 2300 ft
Mostly Cloudy 3100 ft
2019/09/23 08:53 PHLI 230853Z AUTO 29006KT 10SM SCT016 BKN023 BKN031 26/24 A3004 RMK AO2 SLP170 P0001 60001 T02610244 50005 TSNO $
 
PHBK - Barking Sands/Ka, Hawaii, USA
Distance from station: WNW 237mi, 382km
Updated: Sun, 22-Sep-2019 10:56pm HST
Clear
Clear
 Wind from SE
Wind: SE 6 mph , 9 km/h
Temperature: 81°F , 27°C
Heat Index: 85°F , 29°C
Dew Point: 72°F , 22°C
Humidity: 74%
Barometer: 30.02 inHg , 1016.6 hPa
Clouds: Clear
Visibility: 10 miles , 16 km
2019/09/23 08:56 PHBK 230856Z AUTO 13005KT 10SM CLR 27/22 A3002 RMK AO2 SLP166 T02670217 50007